Sunflower Hakata — JL6711 — position and weather

sailwx.info

Track history (hours):
 
Tides and Currents Weather Stations Pressure Air Temp Water Temp Dewpoint Dewpoint Depression Visibility Wind Speed Wind Dir Waves Ship Positions

Sunflower Hakata

Last reported at 2014-Nov-29 03:32 UTC. Time now 2014-Nov-29 03:42 UTC.
Position N 33°38' E 130°24'.

Length 194 m; draft 6.5 m.

Type: Cargo ship. MMSI: 431501764.

Date/timePositionNaut miles runAvg speedWind from/ knotsBaromVisibWave heightAir tempDewpointWater temp
2014-Nov-29 03:32N 33°38' E 130°24'0 0.0
2014-Nov-29 02:32N 33°38' E 130°24'0 0.0
2014-Nov-29 01:32N 33°38' E 130°24'0 0.0
2014-Nov-29 00:32N 33°38' E 130°24'0 0.0
2014-Nov-28 23:32N 33°38' E 130°24'0 0.0
2014-Nov-28 22:32N 33°38' E 130°24'0 0.0
2014-Nov-28 21:32N 33°38' E 130°24'0 0.0
2014-Nov-28 20:32N 33°38' E 130°24'10 9.8
2014-Nov-28 19:33N 33°45' E 130°17'2617.9
2014-Nov-28 18:05N 34°02' E 130°41'44516.1
2014-Nov-27 14:28N 35°02' E 139°36'1617.2
2014-Nov-27 13:33N 35°15' E 139°46'1413.8
2014-Nov-27 12:34N 35°29' E 139°49'8 0.5
2014-Nov-26 20:33N 35°37' E 139°49'1414.3
2014-Nov-26 19:33N 35°23' E 139°46'1312.6
2014-Nov-26 18:34N 35°10' E 139°46'24919.1
2014-Nov-26 05:30N 33°53' E 134°59'2223.0
2014-Nov-26 04:34N 34°15' E 134°58'2121.3
2014-Nov-26 03:33N 34°36' E 135°03'2019.4
2014-Nov-26 02:32N 34°32' E 134°39'20313.4
2014-Nov-25 11:25N 34°01' E 130°36'25 2.1
2014-Nov-24 23:27N 33°38' E 130°24'0 0.0
2014-Nov-24 22:32N 33°38' E 130°24'0 0.0
2014-Nov-24 21:32N 33°38' E 130°24'0 0.0
2014-Nov-24 20:33N 33°38' E 130°24'0 0.0
2014-Nov-24 19:32N 33°38' E 130°24'0 0.0
2014-Nov-24 18:33N 33°38' E 130°24'0 0.0
2014-Nov-24 17:32N 33°38' E 130°24'0 0.0
2014-Nov-24 16:32N 33°38' E 130°24'0 0.0
2014-Nov-24 15:32N 33°38' E 130°24'0 0.0
2014-Nov-24 14:32N 33°38' E 130°24'0 0.0
2014-Nov-24 13:32N 33°38' E 130°24'0 0.0
2014-Nov-24 12:32N 33°38' E 130°24'0 0.0
2014-Nov-24 11:29N 33°38' E 130°24'0 0.0
2014-Nov-24 10:29N 33°38' E 130°24'0 0.0
2014-Nov-24 09:29N 33°38' E 130°24'0 0.0
2014-Nov-24 08:33N 33°38' E 130°24'0 0.0
2014-Nov-24 07:32N 33°38' E 130°24'0 0.0
2014-Nov-24 06:26N 33°38' E 130°24'0 0.0
2014-Nov-24 03:32N 33°38' E 130°24'0 0.0
2014-Nov-24 02:32N 33°38' E 130°24'0 0.0
2014-Nov-24 01:29N 33°38' E 130°24'0 0.0
2014-Nov-24 00:32N 33°38' E 130°24'0 0.0
2014-Nov-23 23:14N 33°38' E 130°24'0 0.1
2014-Nov-23 22:34N 33°38' E 130°24'1110.9
2014-Nov-23 21:32N 33°47' E 130°18'2417.7
2014-Nov-23 20:12N 34°02' E 130°41'45014.7
2014-Nov-22 13:33N 35°05' E 139°41'1414.2
2014-Nov-22 12:33N 35°19' E 139°43'1717.2
2014-Nov-22 11:34N 35°35' E 139°51'3 0.2
2014-Nov-21 20:18N 35°37' E 139°47'810.6
2014-Nov-21 19:33N 35°30' E 139°52'1414.1
2014-Nov-21 18:33N 35°17' E 139°45'24817.7
2014-Nov-21 04:34N 34°01' E 134°58'2323.0
2014-Nov-21 03:33N 34°24' E 135°00'1212.3
2014-Nov-21 02:33N 34°34' E 134°51'20213.4
2014-Nov-20 11:28N 34°00' E 130°50'1920.1
2014-Nov-20 10:33N 33°58' E 130°28'2020.7
2014-Nov-20 09:33N 33°41' E 130°16'8 7.3
2014-Nov-20 08:32N 33°38' E 130°24'0 0.0
2014-Nov-20 07:29N 33°38' E 130°24'0 0.0
2014-Nov-20 06:32N 33°38' E 130°24'0 0.0
2014-Nov-20 05:29N 33°38' E 130°24'0 0.0
2014-Nov-20 04:32N 33°38' E 130°24'0 0.0
2014-Nov-20 03:32N 33°38' E 130°24'0 0.0
2014-Nov-20 02:32N 33°38' E 130°24'0 0.0
2014-Nov-20 01:29N 33°38' E 130°24'0 0.0
2014-Nov-20 00:32N 33°38' E 130°24'0 0.0
2014-Nov-19 23:32N 33°38' E 130°24'0 0.0
2014-Nov-19 22:32N 33°38' E 130°24'0 0.0
2014-Nov-19 21:32N 33°38' E 130°24'0 0.0
2014-Nov-19 20:33N 33°38' E 130°24'9 8.9
2014-Nov-19 19:33N 33°43' E 130°16'2018.5
2014-Nov-19 18:30N 33°59' E 130°30'  
Track history (hours):
 
Tides and Currents Weather Stations Pressure Air Temp Water Temp Dewpoint Dewpoint Depression Visibility Wind Speed Wind Dir Waves Ship Positions

Sunflower Hakata

Last reported at 2014-Nov-29 03:32 UTC. Time now 2014-Nov-29 03:42 UTC.
Position N 33°38' E 130°24'.

Length 194 m; draft 6.5 m.

Type: Cargo ship. MMSI: 431501764.

Date/timePositionNaut miles runAvg speedWind from/ knotsBaromVisibWave heightAir tempDewpointWater temp
2014-Nov-29 03:32N 33°38' E 130°24'0 0.0
2014-Nov-29 02:32N 33°38' E 130°24'0 0.0
2014-Nov-29 01:32N 33°38' E 130°24'0 0.0
2014-Nov-29 00:32N 33°38' E 130°24'0 0.0
2014-Nov-28 23:32N 33°38' E 130°24'0 0.0
2014-Nov-28 22:32N 33°38' E 130°24'0 0.0
2014-Nov-28 21:32N 33°38' E 130°24'0 0.0
2014-Nov-28 20:32N 33°38' E 130°24'10 9.8
2014-Nov-28 19:33N 33°45' E 130°17'2617.9
2014-Nov-28 18:05N 34°02' E 130°41'44516.1
2014-Nov-27 14:28N 35°02' E 139°36'1617.2
2014-Nov-27 13:33N 35°15' E 139°46'1413.8
2014-Nov-27 12:34N 35°29' E 139°49'8 0.5
2014-Nov-26 20:33N 35°37' E 139°49'1414.3
2014-Nov-26 19:33N 35°23' E 139°46'1312.6
2014-Nov-26 18:34N 35°10' E 139°46'24919.1
2014-Nov-26 05:30N 33°53' E 134°59'2223.0
2014-Nov-26 04:34N 34°15' E 134°58'2121.3
2014-Nov-26 03:33N 34°36' E 135°03'2019.4
2014-Nov-26 02:32N 34°32' E 134°39'20313.4
2014-Nov-25 11:25N 34°01' E 130°36'25 2.1
2014-Nov-24 23:27N 33°38' E 130°24'0 0.0
2014-Nov-24 22:32N 33°38' E 130°24'0 0.0
2014-Nov-24 21:32N 33°38' E 130°24'0 0.0
2014-Nov-24 20:33N 33°38' E 130°24'0 0.0
2014-Nov-24 19:32N 33°38' E 130°24'0 0.0
2014-Nov-24 18:33N 33°38' E 130°24'0 0.0
2014-Nov-24 17:32N 33°38' E 130°24'0 0.0
2014-Nov-24 16:32N 33°38' E 130°24'0 0.0
2014-Nov-24 15:32N 33°38' E 130°24'0 0.0
2014-Nov-24 14:32N 33°38' E 130°24'0 0.0
2014-Nov-24 13:32N 33°38' E 130°24'0 0.0
2014-Nov-24 12:32N 33°38' E 130°24'0 0.0
2014-Nov-24 11:29N 33°38' E 130°24'0 0.0
2014-Nov-24 10:29N 33°38' E 130°24'0 0.0
2014-Nov-24 09:29N 33°38' E 130°24'0 0.0
2014-Nov-24 08:33N 33°38' E 130°24'0 0.0
2014-Nov-24 07:32N 33°38' E 130°24'0 0.0
2014-Nov-24 06:26N 33°38' E 130°24'0 0.0
2014-Nov-24 03:32N 33°38' E 130°24'0 0.0
2014-Nov-24 02:32N 33°38' E 130°24'0 0.0
2014-Nov-24 01:29N 33°38' E 130°24'0 0.0
2014-Nov-24 00:32N 33°38' E 130°24'0 0.0
2014-Nov-23 23:14N 33°38' E 130°24'0 0.1
2014-Nov-23 22:34N 33°38' E 130°24'1110.9
2014-Nov-23 21:32N 33°47' E 130°18'2417.7
2014-Nov-23 20:12N 34°02' E 130°41'45014.7
2014-Nov-22 13:33N 35°05' E 139°41'1414.2
2014-Nov-22 12:33N 35°19' E 139°43'1717.2
2014-Nov-22 11:34N 35°35' E 139°51'3 0.2
2014-Nov-21 20:18N 35°37' E 139°47'810.6
2014-Nov-21 19:33N 35°30' E 139°52'1414.1
2014-Nov-21 18:33N 35°17' E 139°45'24817.7
2014-Nov-21 04:34N 34°01' E 134°58'2323.0
2014-Nov-21 03:33N 34°24' E 135°00'1212.3
2014-Nov-21 02:33N 34°34' E 134°51'20213.4
2014-Nov-20 11:28N 34°00' E 130°50'1920.1
2014-Nov-20 10:33N 33°58' E 130°28'2020.7
2014-Nov-20 09:33N 33°41' E 130°16'8 7.3
2014-Nov-20 08:32N 33°38' E 130°24'0 0.0
2014-Nov-20 07:29N 33°38' E 130°24'0 0.0
2014-Nov-20 06:32N 33°38' E 130°24'0 0.0
2014-Nov-20 05:29N 33°38' E 130°24'0 0.0
2014-Nov-20 04:32N 33°38' E 130°24'0 0.0
2014-Nov-20 03:32N 33°38' E 130°24'0 0.0
2014-Nov-20 02:32N 33°38' E 130°24'0 0.0
2014-Nov-20 01:29N 33°38' E 130°24'0 0.0
2014-Nov-20 00:32N 33°38' E 130°24'0 0.0
2014-Nov-19 23:32N 33°38' E 130°24'0 0.0
2014-Nov-19 22:32N 33°38' E 130°24'0 0.0
2014-Nov-19 21:32N 33°38' E 130°24'0 0.0
2014-Nov-19 20:33N 33°38' E 130°24'9 8.9
2014-Nov-19 19:33N 33°43' E 130°16'2018.5
2014-Nov-19 18:30N 33°59' E 130°30'  

Dump ship's entire track history